createdAt,value
2019-02-19T00:00:42.332Z,391.95
2019-02-19T00:03:37.433Z,386.77
2019-02-19T00:06:32.004Z,408.55
2019-02-19T00:09:26.264Z,409.80
2019-02-19T00:12:21.128Z,421.42
2019-02-19T00:15:15.872Z,373.48
2019-02-19T00:18:10.682Z,399.27
2019-02-19T00:21:05.331Z,405.07
2019-02-19T00:24:00.202Z,393.70
2019-02-19T00:26:54.951Z,389.52
2019-02-19T00:29:49.787Z,366.85
2019-02-19T00:32:44.786Z,345.45
2019-02-19T00:35:39.452Z,327.20
2019-02-19T00:38:34.459Z,320.10
2019-02-19T00:41:29.070Z,339.08
2019-02-19T00:44:23.978Z,295.95
2019-02-19T00:47:18.779Z,295.95
2019-02-19T00:50:14.032Z,263.82
2019-02-19T00:53:09.003Z,272.95
2019-02-19T00:56:03.832Z,224.60
2019-02-19T00:58:58.540Z,227.87
2019-02-19T01:01:53.143Z,215.30
2019-02-19T01:04:48.266Z,224.62
2019-02-19T01:07:43.276Z,199.75
2019-02-19T01:10:38.131Z,203.95
2019-02-19T01:13:32.874Z,195.60
2019-02-19T01:16:28.420Z,177.32
2019-02-19T01:19:23.220Z,164.35
2019-02-19T01:22:17.902Z,148.00
2019-02-19T01:25:13.104Z,146.47
2019-02-19T01:28:07.741Z,142.77
2019-02-19T01:31:03.051Z,149.90
2019-02-19T01:33:58.410Z,136.22
2019-02-19T01:36:53.955Z,150.25
2019-02-19T01:39:48.803Z,142.28
2019-02-19T01:42:43.753Z,126.05
2019-02-19T01:45:38.635Z,145.75
2019-02-19T01:48:34.080Z,133.32
2019-02-19T01:51:29.082Z,158.35
2019-02-19T01:54:24.191Z,157.72
2019-02-19T01:57:19.157Z,152.57
2019-02-19T02:00:15.827Z,162.77
2019-02-19T02:03:10.424Z,168.13
2019-02-19T02:06:05.370Z,154.65
2019-02-19T02:09:00.291Z,135.18
2019-02-19T02:11:54.995Z,135.20
2019-02-19T02:14:49.991Z,159.20
2019-02-19T02:17:45.522Z,150.57
2019-02-19T02:20:40.905Z,153.25
2019-02-19T02:23:36.332Z,136.47
2019-02-19T02:26:31.426Z,151.32
2019-02-19T02:29:26.410Z,164.37
2019-02-19T02:32:21.340Z,159.93
2019-02-19T02:35:18.347Z,136.22
2019-02-19T02:38:13.159Z,146.90
2019-02-19T02:41:08.633Z,151.42
2019-02-19T02:44:06.980Z,133.18
2019-02-19T02:47:01.553Z,128.70
2019-02-19T02:49:56.356Z,140.22
2019-02-19T02:52:51.241Z,140.10
2019-02-19T02:55:46.221Z,145.85
2019-02-19T02:58:41.168Z,146.05
2019-02-19T03:01:37.433Z,129.10
2019-02-19T03:04:31.892Z,147.80
2019-02-19T03:07:37.334Z,120.13
2019-02-19T03:10:31.980Z,153.90
2019-02-19T03:13:27.024Z,150.57
2019-02-19T03:16:21.835Z,143.57
2019-02-19T03:19:16.535Z,152.40
2019-02-19T03:22:11.727Z,151.27
2019-02-19T03:25:06.700Z,147.93
2019-02-19T03:28:02.275Z,133.90
2019-02-19T03:30:57.427Z,134.40
2019-02-19T03:33:53.551Z,136.22
2019-02-19T03:36:48.698Z,136.85
2019-02-19T03:39:43.615Z,161.35
2019-02-19T03:42:39.620Z,141.43
2019-02-19T03:45:35.561Z,159.45
2019-02-19T03:48:30.537Z,143.37
2019-02-19T03:51:25.620Z,139.45
2019-02-19T03:54:22.792Z,157.20
2019-02-19T03:57:17.704Z,136.75
2019-02-19T04:00:12.837Z,119.93
2019-02-19T04:03:08.641Z,114.05
2019-02-19T04:06:03.950Z,132.87
2019-02-19T04:08:58.853Z,149.32
2019-02-19T04:11:55.980Z,121.37
2019-02-19T04:14:50.872Z,116.08
2019-02-19T04:17:45.617Z,109.52
2019-02-19T04:20:44.072Z,105.78
2019-02-19T04:23:38.873Z,105.63
2019-02-19T04:26:33.352Z,119.05
2019-02-19T04:29:28.277Z,94.45
2019-02-19T04:32:23.828Z,101.47
2019-02-19T04:35:19.015Z,119.95
2019-02-19T04:38:13.474Z,81.60
2019-02-19T04:41:08.313Z,83.75
2019-02-19T04:44:03.082Z,74.95
2019-02-19T04:46:57.800Z,88.03
2019-02-19T04:49:52.508Z,74.60
2019-02-19T04:52:47.694Z,83.05
2019-02-19T04:55:42.679Z,69.12
2019-02-19T04:58:37.979Z,81.47
2019-02-19T05:01:33.440Z,71.72
2019-02-19T05:04:39.897Z,72.22
2019-02-19T05:07:52.841Z,69.12
2019-02-19T05:10:49.251Z,70.95
2019-02-19T05:13:44.876Z,71.33
2019-02-19T05:16:41.292Z,69.03
2019-02-19T05:19:36.031Z,65.35
2019-02-19T05:22:31.405Z,74.45
2019-02-19T05:25:29.188Z,50.60
2019-02-19T05:28:24.971Z,63.55
2019-02-19T05:31:20.513Z,62.93
2019-02-19T05:34:17.082Z,69.90
2019-02-19T05:37:13.119Z,52.50
2019-02-19T05:40:20.197Z,51.13
2019-02-19T05:44:03.060Z,47.67
2019-02-19T05:46:58.707Z,64.30
2019-02-19T05:49:53.861Z,57.17
2019-02-19T05:52:51.535Z,64.37
2019-02-19T05:55:52.526Z,57.33
2019-02-19T05:58:47.851Z,65.57
2019-02-19T06:01:43.277Z,53.23
2019-02-19T06:04:50.673Z,63.00
2019-02-19T06:07:45.923Z,61.45
2019-02-19T06:10:40.774Z,51.40
2019-02-19T06:13:38.964Z,67.35
2019-02-19T06:16:35.928Z,49.77
2019-02-19T06:19:32.177Z,54.98
2019-02-19T06:22:34.591Z,56.37
2019-02-19T06:25:29.773Z,51.68
2019-02-19T06:28:24.915Z,53.02
2019-02-19T06:31:20.317Z,62.23
2019-02-19T06:34:15.487Z,46.15
2019-02-19T06:37:11.157Z,54.15
2019-02-19T06:40:06.177Z,49.08
2019-02-19T06:43:03.517Z,53.75
2019-02-19T06:45:58.461Z,48.55
2019-02-19T06:48:53.231Z,47.65
2019-02-19T06:51:52.088Z,57.80
2019-02-19T06:54:45.939Z,50.67
2019-02-19T06:57:41.066Z,59.27
2019-02-19T07:00:35.684Z,50.17
2019-02-19T07:03:38.294Z,52.70
2019-02-19T07:06:33.603Z,56.13
2019-02-19T07:09:28.635Z,98.75
2019-02-19T07:12:23.335Z,69.45
2019-02-19T07:15:19.769Z,97.60
2019-02-19T07:18:15.399Z,63.68
2019-02-19T07:21:10.841Z,56.77
2019-02-19T07:24:55.107Z,101.18
2019-02-19T07:27:53.539Z,38.35
2019-02-19T07:30:50.504Z,80.00
2019-02-19T07:33:45.746Z,45.08
2019-02-19T07:36:41.778Z,44.55
2019-02-19T07:39:41.589Z,51.75
2019-02-19T07:42:44.026Z,43.38
2019-02-19T07:45:39.597Z,48.92
2019-02-19T07:48:34.790Z,38.95
2019-02-19T07:51:29.622Z,47.23
2019-02-19T07:54:30.460Z,42.93
2019-02-19T07:57:26.474Z,35.65
2019-02-19T08:00:22.474Z,37.17
2019-02-19T08:03:17.878Z,28.77
2019-02-19T08:06:13.262Z,25.02
2019-02-19T08:09:41.525Z,40.43
2019-02-19T08:12:37.054Z,22.00
2019-02-19T08:15:44.590Z,27.95
2019-02-19T08:18:40.527Z,23.25
2019-02-19T08:21:35.564Z,33.90
2019-02-19T08:24:30.739Z,30.52
2019-02-19T08:27:28.171Z,32.03
2019-02-19T08:30:23.577Z,34.48
2019-02-19T08:33:19.204Z,33.95
2019-02-19T08:36:14.003Z,23.35
2019-02-19T08:39:13.280Z,19.75
2019-02-19T08:42:10.117Z,33.70
2019-02-19T08:45:06.239Z,23.77
2019-02-19T08:48:07.365Z,22.55
2019-02-19T08:51:04.706Z,21.55
2019-02-19T08:54:01.392Z,20.55
2019-02-19T08:57:02.405Z,28.27
2019-02-19T09:00:00.545Z,30.48
2019-02-19T09:02:57.640Z,24.77
2019-02-19T09:05:52.913Z,36.45
2019-02-19T09:08:57.177Z,27.80
2019-02-19T09:11:56.894Z,23.20
2019-02-19T09:14:53.636Z,28.77
2019-02-19T09:17:51.902Z,19.77
2019-02-19T09:20:44.908Z,26.23
2019-02-19T09:23:42.252Z,21.82
2019-02-19T09:26:39.979Z,23.67
2019-02-19T09:29:36.060Z,20.30
2019-02-19T09:32:31.798Z,23.73
2019-02-19T09:35:29.099Z,43.13
2019-02-19T09:38:25.957Z,31.77
2019-02-19T09:41:22.269Z,29.35
2019-02-19T09:44:21.516Z,29.40
2019-02-19T09:47:17.720Z,33.38
2019-02-19T09:50:14.537Z,27.67
2019-02-19T09:53:11.493Z,28.27
2019-02-19T09:56:14.135Z,26.82
2019-02-19T09:59:11.197Z,41.15
2019-02-19T10:02:09.730Z,19.32
2019-02-19T10:05:06.256Z,23.57
2019-02-19T10:08:02.543Z,30.90
2019-02-19T10:10:58.357Z,32.55
2019-02-19T10:14:00.092Z,26.52
2019-02-19T10:16:57.312Z,30.15
2019-02-19T10:19:54.669Z,24.65
2019-02-19T10:22:51.369Z,31.87
2019-02-19T10:25:47.550Z,29.57
2019-02-19T10:28:44.360Z,32.17
2019-02-19T10:31:40.120Z,33.30
2019-02-19T10:34:35.418Z,34.33
2019-02-19T10:37:30.713Z,37.93
2019-02-19T10:40:29.411Z,29.57
2019-02-19T10:43:25.030Z,29.60
2019-02-19T10:46:27.620Z,28.02
2019-02-19T10:49:24.814Z,24.30
2019-02-19T10:52:19.992Z,26.77
2019-02-19T10:55:15.852Z,29.02
2019-02-19T10:58:11.611Z,28.32
2019-02-19T11:01:11.232Z,32.53
2019-02-19T11:04:11.826Z,41.25
2019-02-19T11:07:07.415Z,33.83
2019-02-19T11:10:03.529Z,27.82
2019-02-19T11:12:59.020Z,27.77
2019-02-19T11:15:54.488Z,28.47
2019-02-19T11:18:51.090Z,30.70
2019-02-19T11:21:50.579Z,28.73
2019-02-19T11:24:47.721Z,38.13
2019-02-19T11:27:42.652Z,62.60
2019-02-19T11:30:42.372Z,47.38
2019-02-19T11:33:40.604Z,42.45
2019-02-19T11:36:38.804Z,29.67
2019-02-19T11:39:37.871Z,33.63
2019-02-19T11:42:33.524Z,41.13
2019-02-19T11:45:28.620Z,42.50
2019-02-19T11:48:26.145Z,43.40
2019-02-19T11:51:22.248Z,37.73
2019-02-19T11:54:17.924Z,43.25
2019-02-19T11:57:14.197Z,30.97
2019-02-19T12:00:10.583Z,34.58
2019-02-19T12:03:09.389Z,30.60
2019-02-19T12:06:07.622Z,38.65
2019-02-19T12:09:42.891Z,46.65
2019-02-19T12:16:53.033Z,40.50
2019-02-19T12:20:11.706Z,53.92
2019-02-19T12:23:15.913Z,72.82
2019-02-19T12:26:23.908Z,57.13
2019-02-19T12:29:19.939Z,56.80
2019-02-19T12:32:18.071Z,41.68
2019-02-19T12:35:14.370Z,58.00
2019-02-19T12:38:10.616Z,70.10
2019-02-19T12:41:07.332Z,74.70
2019-02-19T12:44:06.755Z,105.12
2019-02-19T12:47:08.163Z,96.15
2019-02-19T12:50:07.926Z,102.58
2019-02-19T12:53:07.940Z,90.15
2019-02-19T12:56:03.325Z,86.53
2019-02-19T12:59:18.056Z,106.15
2019-02-19T13:06:04.343Z,130.87
2019-02-19T13:08:59.084Z,344.07
2019-02-19T13:11:54.255Z,741.67
2019-02-19T13:14:58.850Z,578.38
2019-02-19T13:17:53.855Z,282.02
2019-02-19T13:20:50.012Z,162.68
2019-02-19T13:23:47.431Z,136.43
2019-02-19T13:26:42.866Z,169.32
2019-02-19T13:29:39.976Z,210.13
2019-02-19T13:32:35.706Z,221.15
2019-02-19T13:35:30.539Z,239.93
2019-02-19T13:38:27.294Z,251.37
2019-02-19T13:41:22.949Z,254.78
2019-02-19T13:44:17.671Z,251.27
2019-02-19T13:47:15.998Z,297.77
2019-02-19T13:50:12.982Z,255.22
2019-02-19T13:53:18.483Z,246.55
2019-02-19T13:56:13.401Z,253.55
2019-02-19T13:59:09.450Z,198.72
2019-02-19T14:02:05.004Z,182.55
2019-02-19T14:05:00.625Z,140.12
2019-02-19T14:07:55.707Z,160.70
2019-02-19T14:10:50.795Z,271.57
2019-02-19T14:13:51.912Z,198.62
2019-02-19T14:16:52.166Z,243.20
2019-02-19T14:19:55.322Z,267.93
2019-02-19T14:23:15.060Z,176.55
2019-02-19T14:26:33.754Z,131.63
2019-02-19T14:29:51.126Z,190.05
2019-02-19T14:33:09.663Z,255.20
2019-02-19T14:36:30.613Z,208.13
2019-02-19T14:39:58.768Z,173.20
2019-02-19T14:43:17.411Z,198.60
2019-02-19T14:46:33.122Z,251.73
2019-02-19T14:49:47.631Z,272.42
2019-02-19T14:52:59.016Z,220.37
2019-02-19T14:56:20.315Z,220.73
2019-02-19T14:59:34.735Z,233.05
2019-02-19T15:02:50.379Z,209.62
2019-02-19T15:06:19.254Z,182.93
2019-02-19T15:09:51.537Z,166.12
2019-02-19T15:13:04.644Z,169.80
2019-02-19T15:16:09.262Z,195.97
2019-02-19T15:19:18.376Z,232.30
2019-02-19T15:22:26.207Z,231.25
2019-02-19T15:25:48.135Z,258.90
2019-02-19T15:28:59.239Z,278.15
2019-02-19T15:32:11.926Z,289.08
2019-02-19T15:35:24.953Z,333.10
2019-02-19T15:38:43.523Z,323.35
2019-02-19T15:42:09.339Z,371.15
2019-02-19T15:45:16.617Z,351.40
2019-02-19T15:48:44.218Z,323.00
2019-02-19T15:52:16.765Z,284.10
2019-02-19T15:55:31.508Z,234.25
2019-02-19T15:58:54.299Z,293.27
2019-02-19T16:02:27.821Z,290.48
2019-02-19T16:05:46.930Z,280.73
2019-02-19T16:08:48.926Z,343.77
2019-02-19T16:11:49.636Z,268.37
2019-02-19T16:14:59.217Z,276.12
2019-02-19T16:18:15.432Z,267.23
2019-02-19T16:21:38.819Z,238.35
2019-02-19T16:24:52.751Z,251.30
2019-02-19T16:28:07.410Z,210.35
2019-02-19T16:31:11.458Z,224.67
2019-02-19T16:34:30.527Z,193.32
2019-02-19T16:37:34.484Z,171.65
2019-02-19T16:40:38.215Z,176.50
2019-02-19T16:43:50.902Z,147.95
2019-02-19T16:47:06.551Z,152.68
2019-02-19T16:50:09.197Z,151.82
2019-02-19T16:53:21.216Z,174.65
2019-02-19T16:56:32.325Z,143.25
2019-02-19T16:59:45.813Z,152.55
2019-02-19T17:03:15.479Z,142.53
2019-02-19T17:06:30.304Z,141.85
2019-02-19T17:09:43.018Z,157.93
2019-02-19T17:12:58.329Z,187.30
2019-02-19T17:16:15.412Z,181.97
2019-02-19T17:19:29.356Z,134.60
2019-02-19T17:22:45.238Z,134.78
2019-02-19T17:26:14.157Z,159.52
2019-02-19T17:29:30.700Z,145.30
2019-02-19T17:32:40.750Z,135.90
2019-02-19T17:35:46.772Z,124.33
2019-02-19T17:39:00.107Z,128.00
2019-02-19T17:42:18.463Z,142.68
2019-02-19T17:45:29.995Z,143.20
2019-02-19T17:48:41.331Z,141.60
2019-02-19T17:51:56.113Z,138.07
2019-02-19T17:55:01.345Z,127.05
2019-02-19T17:58:26.240Z,105.05
2019-02-19T18:01:52.373Z,125.18
2019-02-19T18:05:11.655Z,89.77
2019-02-19T18:08:21.083Z,88.52
2019-02-19T18:11:52.966Z,80.22
2019-02-19T18:15:09.692Z,70.78
2019-02-19T18:18:23.105Z,75.42
2019-02-19T18:21:18.692Z,66.97
2019-02-19T18:24:14.520Z,80.65
2019-02-19T18:27:10.538Z,68.50
2019-02-19T18:30:06.301Z,69.97
2019-02-19T18:33:02.452Z,70.40
2019-02-19T18:35:58.335Z,65.57
2019-02-19T18:38:53.915Z,66.62
2019-02-19T18:41:49.863Z,60.52
2019-02-19T18:44:45.769Z,60.63
2019-02-19T18:47:41.598Z,62.10
2019-02-19T18:50:37.122Z,51.58
2019-02-19T18:53:32.919Z,55.48
2019-02-19T18:56:28.921Z,50.95
2019-02-19T18:59:24.773Z,46.18
2019-02-19T19:02:21.079Z,57.80
2019-02-19T19:05:17.163Z,42.98
2019-02-19T19:08:13.750Z,43.95
2019-02-19T19:11:09.334Z,42.95
2019-02-19T19:14:05.632Z,38.92
2019-02-19T19:17:01.050Z,44.00
2019-02-19T19:19:56.837Z,48.90
2019-02-19T19:22:52.685Z,47.83
2019-02-19T19:25:48.751Z,42.78
2019-02-19T19:28:44.735Z,52.62
2019-02-19T19:31:41.223Z,42.62
2019-02-19T19:34:36.493Z,51.35
2019-02-19T19:37:31.540Z,57.08
2019-02-19T19:40:26.275Z,58.73
2019-02-19T19:43:21.064Z,46.85
2019-02-19T19:46:15.502Z,43.95
2019-02-19T19:49:10.175Z,41.73
2019-02-19T19:52:05.083Z,44.38
2019-02-19T19:55:00.009Z,38.60
2019-02-19T19:57:54.544Z,46.00
2019-02-19T20:00:52.579Z,51.65
2019-02-19T20:03:47.545Z,48.42
2019-02-19T20:06:42.104Z,43.58
2019-02-19T20:09:37.083Z,45.90
2019-02-19T20:12:31.807Z,47.03
2019-02-19T20:15:26.488Z,51.58
2019-02-19T20:18:21.198Z,42.73
2019-02-19T20:21:16.277Z,43.92
2019-02-19T20:24:11.805Z,41.35
2019-02-19T20:27:06.342Z,50.45
2019-02-19T20:30:01.205Z,41.77
2019-02-19T20:32:56.122Z,44.55
2019-02-19T20:35:50.809Z,49.15
2019-02-19T20:38:45.899Z,59.63
2019-02-19T20:41:40.822Z,60.67
2019-02-19T20:44:35.587Z,60.73
2019-02-19T20:47:32.640Z,60.25
2019-02-19T20:50:27.344Z,64.07
2019-02-19T20:53:22.218Z,55.90
2019-02-19T20:56:16.806Z,60.73
2019-02-19T20:59:11.530Z,57.27
2019-02-19T21:02:06.682Z,62.73
2019-02-19T21:05:01.421Z,66.92
2019-02-19T21:07:56.672Z,57.40
2019-02-19T21:10:51.402Z,48.50
2019-02-19T21:13:46.117Z,57.53
2019-02-19T21:16:42.141Z,65.17
2019-02-19T21:19:37.210Z,72.17
2019-02-19T21:22:31.882Z,66.45
2019-02-19T21:25:30.964Z,66.72
2019-02-19T21:28:23.183Z,69.80
2019-02-19T21:31:18.267Z,74.00
2019-02-19T21:34:13.032Z,63.98
2019-02-19T21:37:07.712Z,84.22
2019-02-19T21:40:02.246Z,80.10
2019-02-19T21:42:57.712Z,101.05
2019-02-19T21:45:52.924Z,109.50
2019-02-19T21:48:49.308Z,108.27
2019-02-19T21:51:44.153Z,111.45
2019-02-19T21:54:38.872Z,122.70
2019-02-19T21:57:33.903Z,113.00
2019-02-19T22:00:28.971Z,130.95
2019-02-19T22:03:23.784Z,145.62
2019-02-19T22:06:18.671Z,157.80
2019-02-19T22:09:13.721Z,142.40
2019-02-19T22:12:09.264Z,167.68
2019-02-19T22:15:04.510Z,183.00
2019-02-19T22:17:59.125Z,163.72
2019-02-19T22:21:05.214Z,179.25
2019-02-19T22:24:00.281Z,182.82
2019-02-19T22:26:55.059Z,185.55
2019-02-19T22:29:49.917Z,198.45
2019-02-19T22:32:44.833Z,186.18
2019-02-19T22:35:39.743Z,188.20
2019-02-19T22:38:35.205Z,199.25
2019-02-19T22:41:29.778Z,191.85
2019-02-19T22:44:24.313Z,196.12
2019-02-19T22:47:19.917Z,213.75
2019-02-19T22:50:14.592Z,205.75
2019-02-19T22:53:26.890Z,228.37
2019-02-19T22:56:25.404Z,231.28
2019-02-19T22:59:20.327Z,239.17
2019-02-19T23:02:20.811Z,235.02
2019-02-19T23:05:17.363Z,245.95
2019-02-19T23:08:12.505Z,225.00
2019-02-19T23:11:08.393Z,229.85
2019-02-19T23:14:05.043Z,221.62
2019-02-19T23:17:00.104Z,220.95
2019-02-19T23:19:55.217Z,248.38
2019-02-19T23:22:54.081Z,221.32
2019-02-19T23:25:49.181Z,233.53
2019-02-19T23:28:46.567Z,241.90
2019-02-19T23:31:41.563Z,226.50
2019-02-19T23:34:38.075Z,229.95
2019-02-19T23:37:33.435Z,244.20
2019-02-19T23:40:28.892Z,230.55
2019-02-19T23:43:23.979Z,307.80
2019-02-19T23:46:19.627Z,278.07
2019-02-19T23:49:14.730Z,268.50
2019-02-19T23:52:10.767Z,246.70
2019-02-19T23:55:05.598Z,235.32
2019-02-19T23:58:01.945Z,251.80
